createdAt,value
2018-09-21T00:00:40.981Z,3.50
2018-09-21T00:03:09.005Z,4.47
2018-09-21T00:05:37.090Z,3.57
2018-09-21T00:08:05.222Z,3.63
2018-09-21T00:10:33.296Z,3.97
2018-09-21T00:13:01.336Z,3.40
2018-09-21T00:15:29.380Z,3.97
2018-09-21T00:17:57.409Z,3.83
2018-09-21T00:20:25.457Z,3.90
2018-09-21T00:22:53.533Z,3.90
2018-09-21T00:25:21.627Z,3.33
2018-09-21T00:27:49.677Z,3.73
2018-09-21T00:30:17.736Z,4.20
2018-09-21T00:32:45.769Z,3.80
2018-09-21T00:35:13.810Z,3.67
2018-09-21T00:37:41.853Z,3.77
2018-09-21T00:40:09.917Z,4.07
2018-09-21T00:42:37.957Z,3.60
2018-09-21T00:45:06.018Z,4.27
2018-09-21T00:47:34.087Z,3.80
2018-09-21T00:50:02.133Z,3.80
2018-09-21T00:52:30.178Z,3.90
2018-09-21T00:54:58.250Z,4.00
2018-09-21T00:57:26.281Z,3.67
2018-09-21T00:59:54.335Z,3.80
2018-09-21T01:02:22.454Z,4.20
2018-09-21T01:04:50.481Z,3.87
2018-09-21T01:07:18.518Z,4.40
2018-09-21T01:09:46.563Z,4.20
2018-09-21T01:12:14.650Z,4.00
2018-09-21T01:14:42.834Z,4.60
2018-09-21T01:17:10.938Z,3.83
2018-09-21T01:19:39.059Z,3.97
2018-09-21T01:22:07.110Z,4.10
2018-09-21T01:24:35.164Z,4.47
2018-09-21T01:27:03.218Z,4.53
2018-09-21T01:29:31.300Z,4.60
2018-09-21T01:31:59.298Z,3.97
2018-09-21T01:34:27.520Z,4.10
2018-09-21T01:36:55.594Z,3.63
2018-09-21T01:39:23.657Z,4.33
2018-09-21T01:41:51.696Z,4.40
2018-09-21T01:44:19.741Z,4.47
2018-09-21T01:46:47.834Z,4.50
2018-09-21T01:49:15.874Z,4.37
2018-09-21T01:51:43.895Z,3.40
2018-09-21T01:54:11.910Z,4.27
2018-09-21T01:56:40.005Z,4.27
2018-09-21T01:59:08.060Z,4.23
2018-09-21T02:01:36.085Z,4.57
2018-09-21T02:04:04.150Z,4.40
2018-09-21T02:06:32.501Z,4.07
2018-09-21T02:09:00.537Z,4.70
2018-09-21T02:11:28.610Z,4.43
2018-09-21T02:13:56.628Z,4.60
2018-09-21T02:16:24.666Z,4.63
2018-09-21T02:18:52.697Z,4.50
2018-09-21T02:21:20.720Z,4.33
2018-09-21T02:23:48.777Z,4.00
2018-09-21T02:26:16.797Z,4.50
2018-09-21T02:28:44.842Z,4.30
2018-09-21T02:31:12.906Z,4.33
2018-09-21T02:33:40.967Z,4.17
2018-09-21T02:36:09.058Z,4.37
2018-09-21T02:38:37.103Z,3.93
2018-09-21T02:41:05.769Z,4.53
2018-09-21T02:43:34.145Z,4.23
2018-09-21T02:46:02.160Z,3.87
2018-09-21T02:48:30.204Z,4.57
2018-09-21T02:50:58.233Z,4.10
2018-09-21T02:53:26.265Z,4.73
2018-09-21T02:55:54.284Z,4.47
2018-09-21T02:58:22.315Z,4.30
2018-09-21T03:00:50.528Z,3.60
2018-09-21T03:03:18.360Z,4.17
2018-09-21T03:05:46.387Z,4.20
2018-09-21T03:08:14.430Z,4.20
2018-09-21T03:10:42.476Z,4.27
2018-09-21T03:13:10.640Z,3.90
2018-09-21T03:15:38.568Z,3.90
2018-09-21T03:18:06.609Z,4.10
2018-09-21T03:20:34.641Z,4.77
2018-09-21T03:23:02.684Z,4.13
2018-09-21T03:25:30.771Z,5.00
2018-09-21T03:27:58.822Z,4.03
2018-09-21T03:30:26.848Z,4.73
2018-09-21T03:32:54.879Z,4.43
2018-09-21T03:35:22.970Z,3.90
2018-09-21T03:37:50.945Z,4.37
2018-09-21T03:40:19.060Z,4.37
2018-09-21T03:42:47.121Z,5.17
2018-09-21T03:45:15.177Z,4.37
2018-09-21T03:47:43.213Z,4.77
2018-09-21T03:50:11.262Z,4.90
2018-09-21T03:52:39.291Z,4.40
2018-09-21T03:55:07.368Z,4.83
2018-09-21T03:57:35.402Z,4.77
2018-09-21T04:00:03.528Z,4.37
2018-09-21T04:02:31.589Z,4.90
2018-09-21T04:04:59.615Z,4.40
2018-09-21T04:07:27.685Z,4.77
2018-09-21T04:09:55.785Z,4.20
2018-09-21T04:12:23.847Z,4.30
2018-09-21T04:14:51.896Z,5.40
2018-09-21T04:17:19.928Z,4.47
2018-09-21T04:19:47.983Z,4.30
2018-09-21T04:22:16.403Z,5.10
2018-09-21T04:24:44.585Z,4.97
2018-09-21T04:27:12.639Z,4.83
2018-09-21T04:29:40.698Z,4.47
2018-09-21T04:32:08.764Z,5.10
2018-09-21T04:34:36.833Z,4.57
2018-09-21T04:37:05.105Z,4.27
2018-09-21T04:39:33.212Z,4.80
2018-09-21T04:42:01.262Z,4.60
2018-09-21T04:44:29.351Z,4.23
2018-09-21T04:46:57.433Z,5.00
2018-09-21T04:49:25.461Z,4.67
2018-09-21T04:51:53.516Z,5.53
2018-09-21T04:54:21.572Z,5.50
2018-09-21T04:56:50.008Z,4.90
2018-09-21T04:59:18.041Z,5.20
2018-09-21T05:01:46.203Z,4.90
2018-09-21T05:04:14.349Z,4.50
2018-09-21T05:06:42.421Z,5.40
2018-09-21T05:09:10.485Z,5.20
2018-09-21T05:11:38.611Z,4.97
2018-09-21T05:14:06.623Z,4.60
2018-09-21T05:16:34.704Z,5.03
2018-09-21T05:19:02.788Z,6.23
2018-09-21T05:21:30.814Z,8.40
2018-09-21T05:23:58.937Z,9.97
2018-09-21T05:26:26.988Z,9.33
2018-09-21T05:28:55.094Z,7.30
2018-09-21T05:31:23.137Z,11.27
2018-09-21T05:33:51.711Z,8.03
2018-09-21T05:36:19.816Z,7.27
2018-09-21T05:38:51.999Z,8.37
2018-09-21T05:41:20.028Z,9.40
2018-09-21T05:43:49.893Z,8.63
2018-09-21T05:46:17.922Z,8.67
2018-09-21T05:48:46.557Z,6.23
2018-09-21T05:51:14.597Z,8.73
2018-09-21T05:53:42.645Z,7.13
2018-09-21T05:56:10.735Z,6.77
2018-09-21T05:58:38.781Z,6.73
2018-09-21T06:01:06.900Z,6.43
2018-09-21T06:03:34.943Z,5.03
2018-09-21T06:06:03.005Z,4.50
2018-09-21T06:10:56.893Z,3.43
2018-09-21T06:13:25.021Z,4.97
2018-09-21T06:15:53.105Z,4.60
2018-09-21T06:18:21.160Z,4.37
2018-09-21T06:20:49.278Z,4.13
2018-09-21T06:23:17.295Z,4.30
2018-09-21T06:25:45.372Z,3.80
2018-09-21T06:28:13.477Z,3.20
2018-09-21T06:30:41.530Z,3.43
2018-09-21T06:33:09.552Z,3.07
2018-09-21T06:35:37.701Z,3.30
2018-09-21T06:38:05.781Z,2.90
2018-09-21T06:40:33.817Z,2.63
2018-09-21T06:43:01.858Z,3.10
2018-09-21T06:45:29.975Z,3.27
2018-09-21T06:47:58.013Z,2.93
2018-09-21T06:50:26.045Z,2.80
2018-09-21T06:52:54.142Z,2.70
2018-09-21T06:55:22.204Z,3.30
2018-09-21T06:57:50.229Z,2.77
2018-09-21T07:00:18.291Z,2.37
2018-09-21T07:02:46.355Z,2.40
2018-09-21T07:05:14.414Z,2.27
2018-09-21T07:07:42.507Z,2.30
2018-09-21T07:10:10.645Z,2.30
2018-09-21T07:12:38.659Z,2.23
2018-09-21T07:15:06.789Z,2.60
2018-09-21T07:17:34.838Z,2.40
2018-09-21T07:20:03.003Z,2.63
2018-09-21T07:22:31.035Z,2.43
2018-09-21T07:24:59.064Z,2.47
2018-09-21T07:27:27.104Z,2.67
2018-09-21T07:29:55.216Z,2.30
2018-09-21T07:32:23.359Z,2.47
2018-09-21T07:34:51.735Z,2.43
2018-09-21T07:37:19.821Z,2.50
2018-09-21T07:39:47.885Z,2.30
2018-09-21T07:42:15.966Z,2.53
2018-09-21T07:44:43.990Z,2.53
2018-09-21T07:47:12.093Z,2.20
2018-09-21T07:49:40.144Z,2.50
2018-09-21T07:52:08.214Z,2.73
2018-09-21T07:54:36.243Z,2.00
2018-09-21T07:57:04.401Z,2.20
2018-09-21T07:59:32.803Z,2.47
2018-09-21T08:02:00.837Z,2.10
2018-09-21T08:04:28.874Z,2.27
2018-09-21T08:06:56.930Z,2.30
2018-09-21T08:09:24.949Z,2.10
2018-09-21T08:11:53.030Z,1.80
2018-09-21T08:14:21.077Z,2.63
2018-09-21T08:16:49.322Z,2.40
2018-09-21T08:19:17.469Z,2.40
2018-09-21T08:21:45.513Z,2.30
2018-09-21T08:24:13.589Z,2.30
2018-09-21T08:26:41.718Z,2.87
2018-09-21T08:29:09.665Z,2.40
2018-09-21T08:31:37.703Z,1.90
2018-09-21T08:34:05.965Z,2.20
2018-09-21T08:36:34.036Z,1.63
2018-09-21T08:39:02.210Z,1.67
2018-09-21T08:41:30.289Z,2.30
2018-09-21T08:43:58.464Z,1.73
2018-09-21T08:46:26.554Z,2.43
2018-09-21T08:48:54.733Z,1.93
2018-09-21T08:51:22.835Z,2.20
2018-09-21T08:53:50.881Z,1.90
2018-09-21T08:56:18.923Z,1.77
2018-09-21T08:58:46.984Z,1.90
2018-09-21T09:01:15.053Z,1.97
2018-09-21T09:03:43.068Z,2.13
2018-09-21T09:06:11.132Z,1.80
2018-09-21T09:08:39.214Z,1.67
2018-09-21T09:11:07.281Z,1.40
2018-09-21T09:13:35.403Z,2.17
2018-09-21T09:16:03.525Z,2.00
2018-09-21T09:18:31.582Z,1.90
2018-09-21T09:20:59.633Z,1.60
2018-09-21T09:23:27.664Z,1.90
2018-09-21T09:25:55.713Z,2.67
2018-09-21T09:28:23.757Z,1.70
2018-09-21T09:30:51.792Z,2.03
2018-09-21T09:33:19.857Z,2.30
2018-09-21T09:35:47.907Z,2.87
2018-09-21T09:38:15.941Z,2.00
2018-09-21T09:40:44.009Z,2.07
2018-09-21T09:43:12.063Z,2.00
2018-09-21T09:45:40.206Z,1.90
2018-09-21T09:48:08.292Z,2.17
2018-09-21T09:50:36.443Z,2.30
2018-09-21T09:53:04.758Z,2.50
2018-09-21T09:55:32.811Z,2.27
2018-09-21T09:58:00.888Z,2.80
2018-09-21T10:00:28.934Z,1.93
2018-09-21T10:02:57.102Z,2.20
2018-09-21T10:05:25.175Z,2.63
2018-09-21T10:07:53.324Z,2.83
2018-09-21T10:10:21.497Z,2.97
2018-09-21T10:12:49.480Z,2.13
2018-09-21T10:15:17.638Z,2.63
2018-09-21T10:17:45.698Z,2.17
2018-09-21T10:20:13.806Z,2.80
2018-09-21T10:22:41.874Z,2.27
2018-09-21T10:25:10.341Z,2.97
2018-09-21T10:27:38.578Z,2.70
2018-09-21T10:30:06.734Z,2.60
2018-09-21T10:32:34.793Z,3.00
2018-09-21T10:35:03.016Z,2.90
2018-09-21T10:37:31.125Z,2.87
2018-09-21T10:39:59.263Z,3.33
2018-09-21T10:42:27.380Z,3.07
2018-09-21T10:44:55.426Z,3.20
2018-09-21T10:47:23.518Z,2.93
2018-09-21T10:49:51.958Z,3.50
2018-09-21T10:52:20.045Z,3.00
2018-09-21T10:54:48.455Z,2.63
2018-09-21T10:57:16.942Z,2.70
2018-09-21T10:59:45.000Z,2.83
2018-09-21T11:02:13.033Z,2.70
2018-09-21T11:04:41.108Z,2.93
2018-09-21T11:07:09.216Z,3.23
2018-09-21T11:09:37.180Z,2.73
2018-09-21T11:12:05.213Z,2.43
2018-09-21T11:14:33.318Z,3.13
2018-09-21T11:17:01.590Z,2.60
2018-09-21T11:19:29.619Z,3.20
2018-09-21T11:21:57.739Z,2.40
2018-09-21T11:24:25.745Z,2.23
2018-09-21T11:26:53.833Z,2.73
2018-09-21T11:29:21.960Z,2.17
2018-09-21T11:31:50.083Z,2.40
2018-09-21T11:34:18.178Z,2.50
2018-09-21T11:36:46.341Z,2.50
2018-09-21T11:39:14.506Z,2.17
2018-09-21T11:41:42.510Z,1.97
2018-09-21T11:44:10.613Z,2.60
2018-09-21T11:46:39.098Z,2.13
2018-09-21T11:49:07.138Z,2.90
2018-09-21T11:51:35.194Z,2.33
2018-09-21T11:54:03.351Z,1.93
2018-09-21T11:56:31.411Z,2.00
2018-09-21T11:58:59.470Z,3.00
2018-09-21T12:01:27.554Z,2.03
2018-09-21T12:03:55.597Z,2.70
2018-09-21T12:06:23.629Z,2.33
2018-09-21T12:08:51.776Z,2.40
2018-09-21T12:11:19.993Z,2.57
2018-09-21T12:13:48.054Z,2.63
2018-09-21T12:16:16.181Z,2.33
2018-09-21T12:18:44.257Z,2.30
2018-09-21T12:21:12.451Z,2.20
2018-09-21T12:23:40.512Z,1.83
2018-09-21T12:26:08.604Z,2.20
2018-09-21T12:28:36.824Z,2.33
2018-09-21T12:31:06.229Z,1.90
2018-09-21T12:33:35.909Z,1.53
2018-09-21T12:36:04.463Z,1.30
2018-09-21T12:38:32.825Z,1.60
2018-09-21T12:41:01.001Z,1.20
2018-09-21T12:43:29.082Z,1.50
2018-09-21T12:45:57.114Z,1.60
2018-09-21T12:48:25.159Z,1.50
2018-09-21T12:50:53.214Z,1.10
2018-09-21T12:53:21.198Z,1.40
2018-09-21T12:55:49.333Z,2.03
2018-09-21T12:58:17.499Z,1.17
2018-09-21T13:00:45.453Z,1.17
2018-09-21T13:03:13.597Z,1.00
2018-09-21T13:05:41.649Z,0.87
2018-09-21T13:08:09.733Z,0.90
2018-09-21T13:10:37.806Z,0.90
2018-09-21T13:13:05.978Z,0.77
2018-09-21T13:15:34.094Z,1.20
2018-09-21T13:18:02.575Z,0.90
2018-09-21T13:20:30.612Z,0.80
2018-09-21T13:22:58.741Z,0.70
2018-09-21T13:25:26.841Z,0.77
2018-09-21T13:27:54.935Z,0.70
2018-09-21T13:30:22.956Z,0.60
2018-09-21T13:32:51.380Z,0.80
2018-09-21T13:35:19.405Z,0.77
2018-09-21T13:37:47.665Z,0.80
2018-09-21T13:40:15.864Z,0.60
2018-09-21T13:42:44.008Z,0.57
2018-09-21T13:45:12.157Z,0.70
2018-09-21T13:47:40.324Z,0.90
2018-09-21T13:50:08.386Z,0.70
2018-09-21T13:52:36.419Z,0.90
2018-09-21T13:55:04.868Z,1.00
2018-09-21T13:57:32.968Z,1.00
2018-09-21T14:00:01.049Z,0.70
2018-09-21T14:02:29.100Z,1.00
2018-09-21T14:04:57.159Z,0.93
2018-09-21T14:07:25.281Z,1.10
2018-09-21T14:09:53.295Z,1.10
2018-09-21T14:12:21.361Z,1.20
2018-09-21T14:14:49.421Z,1.10
2018-09-21T14:17:17.497Z,1.03
2018-09-21T14:19:45.738Z,1.03
2018-09-21T14:22:13.849Z,1.00
2018-09-21T14:24:42.292Z,1.20
2018-09-21T14:27:10.554Z,0.97
2018-09-21T14:29:38.581Z,0.90
2018-09-21T14:32:06.935Z,0.97
2018-09-21T14:34:35.125Z,1.07
2018-09-21T14:37:03.173Z,1.10
2018-09-21T14:39:32.014Z,0.90
2018-09-21T14:42:00.059Z,1.07
2018-09-21T14:44:28.193Z,1.27
2018-09-21T14:46:56.252Z,1.40
2018-09-21T14:49:24.375Z,1.30
2018-09-21T14:51:52.418Z,1.10
2018-09-21T14:54:20.485Z,1.20
2018-09-21T14:56:48.566Z,1.20
2018-09-21T14:59:18.082Z,1.20
2018-09-21T15:01:46.154Z,1.07
2018-09-21T15:04:14.336Z,1.10
2018-09-21T15:06:42.474Z,0.83
2018-09-21T15:09:10.614Z,1.00
2018-09-21T15:11:38.910Z,1.20
2018-09-21T15:14:06.985Z,1.00
2018-09-21T15:16:35.062Z,0.93
2018-09-21T15:19:03.107Z,1.00
2018-09-21T15:21:31.456Z,1.37
2018-09-21T15:23:59.822Z,0.80
2018-09-21T15:26:28.083Z,1.00
2018-09-21T15:28:56.589Z,0.63
2018-09-21T15:31:25.365Z,0.93
2018-09-21T15:33:55.107Z,0.90
2018-09-21T15:36:23.445Z,0.97
2018-09-21T15:38:51.529Z,1.00
2018-09-21T15:41:19.663Z,0.90
2018-09-21T15:43:47.797Z,0.97
2018-09-21T15:46:15.831Z,0.90
2018-09-21T15:48:43.933Z,1.20
2018-09-21T15:51:11.998Z,1.00
2018-09-21T15:53:40.067Z,0.80
2018-09-21T15:56:08.201Z,0.77
2018-09-21T15:58:36.417Z,0.80
2018-09-21T16:01:04.640Z,0.90
2018-09-21T16:03:32.890Z,0.60
2018-09-21T16:06:01.082Z,0.90
2018-09-21T16:08:29.204Z,0.73
2018-09-21T16:10:57.249Z,0.80
2018-09-21T16:13:25.308Z,1.40
2018-09-21T16:15:53.483Z,0.83
2018-09-21T16:18:21.850Z,0.87
2018-09-21T16:20:49.894Z,0.87
2018-09-21T16:23:17.981Z,0.70
2018-09-21T16:25:46.056Z,0.80
2018-09-21T16:28:14.517Z,1.23
2018-09-21T16:30:42.833Z,2.23
2018-09-21T16:33:10.987Z,2.23
2018-09-21T16:35:39.093Z,1.40
2018-09-21T16:38:07.308Z,0.97
2018-09-21T16:40:35.411Z,0.77
2018-09-21T16:43:03.605Z,0.90
2018-09-21T16:45:32.033Z,1.10
2018-09-21T16:48:00.765Z,1.00
2018-09-21T16:50:29.065Z,0.80
2018-09-21T16:52:57.139Z,0.97
2018-09-21T16:55:25.185Z,0.83
2018-09-21T16:57:53.702Z,0.90
2018-09-21T17:00:21.872Z,1.23
2018-09-21T17:02:50.201Z,0.97
2018-09-21T17:05:18.264Z,1.00
2018-09-21T17:07:46.437Z,0.93
2018-09-21T17:10:14.575Z,1.20
2018-09-21T17:12:44.082Z,1.10
2018-09-21T17:15:12.163Z,0.97
2018-09-21T17:17:40.213Z,1.10
2018-09-21T17:20:08.542Z,1.10
2018-09-21T17:22:36.568Z,0.93
2018-09-21T17:25:06.161Z,1.47
2018-09-21T17:27:34.206Z,1.10
2018-09-21T17:30:02.488Z,1.10
2018-09-21T17:32:35.564Z,1.43
2018-09-21T17:35:04.968Z,1.00
2018-09-21T17:37:33.368Z,0.90
2018-09-21T17:40:01.389Z,1.20
2018-09-21T17:42:29.578Z,1.20
2018-09-21T17:44:57.785Z,1.40
2018-09-21T17:47:25.870Z,0.87
2018-09-21T17:49:53.998Z,0.93
2018-09-21T17:52:22.177Z,1.37
2018-09-21T17:54:50.245Z,1.10
2018-09-21T17:57:19.700Z,1.20
2018-09-21T17:59:47.855Z,1.00
2018-09-21T18:02:15.938Z,0.83
2018-09-21T18:04:43.978Z,1.00
2018-09-21T18:07:12.105Z,1.13
2018-09-21T18:09:40.320Z,0.97
2018-09-21T18:12:08.653Z,1.60
2018-09-21T18:14:36.829Z,1.10
2018-09-21T18:17:04.912Z,1.20
2018-09-21T18:19:33.293Z,0.90
2018-09-21T18:22:01.408Z,1.33
2018-09-21T18:24:29.464Z,1.00
2018-09-21T18:26:57.529Z,1.20
2018-09-21T18:29:25.658Z,1.33
2018-09-21T18:31:53.806Z,1.10
2018-09-21T18:34:22.007Z,1.20
2018-09-21T18:36:50.053Z,1.20
2018-09-21T18:39:18.090Z,1.50
2018-09-21T18:41:46.219Z,1.23
2018-09-21T18:44:14.290Z,1.70
2018-09-21T18:46:42.338Z,1.23
2018-09-21T18:49:10.458Z,1.10
2018-09-21T18:51:38.526Z,1.20
2018-09-21T18:54:06.672Z,1.23
2018-09-21T18:56:34.834Z,1.17
2018-09-21T18:59:03.117Z,1.33
2018-09-21T19:01:31.977Z,1.47
2018-09-21T19:04:00.221Z,1.37
2018-09-21T19:06:28.266Z,1.27
2018-09-21T19:08:56.345Z,1.20
2018-09-21T19:11:24.507Z,1.33
2018-09-21T19:13:52.636Z,1.33
2018-09-21T19:16:20.736Z,1.10
2018-09-21T19:18:48.796Z,1.00
2018-09-21T19:21:16.885Z,1.60
2018-09-21T19:23:45.056Z,1.33
2018-09-21T19:26:13.121Z,1.40
2018-09-21T19:28:41.209Z,1.60
2018-09-21T19:31:09.332Z,1.30
2018-09-21T19:33:37.788Z,1.43
2018-09-21T19:36:05.891Z,1.70
2018-09-21T19:38:34.031Z,1.53
2018-09-21T19:41:02.106Z,1.90
2018-09-21T19:43:30.158Z,1.50
2018-09-21T19:45:58.414Z,1.30
2018-09-21T19:48:26.584Z,1.27
2018-09-21T19:50:54.693Z,1.50
2018-09-21T19:53:22.798Z,1.40
2018-09-21T19:55:50.995Z,1.90
2018-09-21T19:58:19.185Z,1.30
2018-09-21T20:00:47.247Z,1.00
2018-09-21T20:03:15.512Z,1.47
2018-09-21T20:05:43.637Z,1.20
2018-09-21T20:08:11.697Z,1.47
2018-09-21T20:10:39.937Z,1.57
2018-09-21T20:13:08.203Z,1.60
2018-09-21T20:15:36.326Z,1.83
2018-09-21T20:18:04.518Z,1.60
2018-09-21T20:20:32.685Z,2.07
2018-09-21T20:23:00.803Z,2.00
2018-09-21T20:25:29.024Z,1.43
2018-09-21T20:27:57.128Z,2.00
2018-09-21T20:30:25.201Z,1.50
2018-09-21T20:32:53.359Z,1.90
2018-09-21T20:35:21.434Z,2.03
2018-09-21T20:37:49.518Z,1.63
2018-09-21T20:40:17.568Z,1.50
2018-09-21T20:42:45.813Z,2.23
2018-09-21T20:45:13.839Z,2.17
2018-09-21T20:47:41.997Z,2.10
2018-09-21T20:50:10.174Z,2.13
2018-09-21T20:52:38.406Z,2.03
2018-09-21T20:55:06.597Z,1.87
2018-09-21T20:57:34.689Z,1.97
2018-09-21T21:00:02.848Z,1.73
2018-09-21T21:02:30.929Z,1.80
2018-09-21T21:04:59.106Z,1.87
2018-09-21T21:07:27.203Z,2.53
2018-09-21T21:09:55.349Z,2.00
2018-09-21T21:12:23.758Z,1.90
2018-09-21T21:14:51.897Z,1.40
2018-09-21T21:17:20.054Z,2.53
2018-09-21T21:19:48.285Z,2.00
2018-09-21T21:22:16.381Z,1.67
2018-09-21T21:24:44.467Z,2.03
2018-09-21T21:27:12.498Z,2.13
2018-09-21T21:29:40.571Z,2.00
2018-09-21T21:32:08.760Z,2.17
2018-09-21T21:34:36.833Z,2.40
2018-09-21T21:37:05.138Z,2.10
2018-09-21T21:39:33.234Z,2.03
2018-09-21T21:42:01.411Z,1.60
2018-09-21T21:44:29.487Z,2.20
2018-09-21T21:46:57.558Z,2.07
2018-09-21T21:49:26.010Z,2.60
2018-09-21T21:51:54.072Z,1.60
2018-09-21T21:54:22.183Z,2.07
2018-09-21T21:56:50.377Z,2.07
2018-09-21T21:59:18.468Z,2.30
2018-09-21T22:01:46.550Z,2.57
2018-09-21T22:04:14.637Z,2.57
2018-09-21T22:06:42.782Z,3.00
2018-09-21T22:09:11.165Z,2.20
2018-09-21T22:11:39.334Z,2.63
2018-09-21T22:14:07.921Z,2.83
2018-09-21T22:16:36.083Z,2.37
2018-09-21T22:19:04.242Z,2.40
2018-09-21T22:21:32.426Z,2.33
2018-09-21T22:24:00.496Z,2.07
2018-09-21T22:26:28.612Z,2.90
2018-09-21T22:28:56.738Z,2.07
2018-09-21T22:31:24.822Z,3.00
2018-09-21T22:33:52.874Z,2.17
2018-09-21T22:36:20.974Z,3.00
2018-09-21T22:38:49.037Z,1.97
2018-09-21T22:41:17.143Z,2.73
2018-09-21T22:43:45.202Z,2.40
2018-09-21T22:46:13.337Z,2.47
2018-09-21T22:48:41.395Z,1.93
2018-09-21T22:51:09.537Z,2.30
2018-09-21T22:53:37.794Z,2.53
2018-09-21T22:56:06.304Z,2.23
2018-09-21T22:58:34.361Z,2.33
2018-09-21T23:01:02.482Z,1.97
2018-09-21T23:03:30.742Z,2.33
2018-09-21T23:05:58.878Z,2.33
2018-09-21T23:08:26.934Z,3.07
2018-09-21T23:10:54.978Z,3.00
2018-09-21T23:13:23.122Z,2.10
2018-09-21T23:15:51.197Z,2.77
2018-09-21T23:18:19.354Z,3.20
2018-09-21T23:20:47.375Z,2.23
2018-09-21T23:23:15.438Z,3.47
2018-09-21T23:25:43.503Z,2.77
2018-09-21T23:28:11.605Z,2.53
2018-09-21T23:30:39.700Z,2.57
2018-09-21T23:33:07.737Z,2.10
2018-09-21T23:35:35.840Z,2.57
2018-09-21T23:38:03.930Z,2.53
2018-09-21T23:40:32.139Z,2.67
2018-09-21T23:43:00.297Z,2.43
2018-09-21T23:45:28.318Z,2.37
2018-09-21T23:47:56.369Z,2.23
2018-09-21T23:50:24.408Z,2.20
2018-09-21T23:52:52.433Z,2.17
2018-09-21T23:55:20.483Z,2.47
2018-09-21T23:57:48.518Z,2.70
